Latest Weather Observations for Barrow Island

IDW60801

Issued at 11:34 am WST Sunday 26 February 2017 (issued every 30 minutes, with the page automatically refreshed every 10 minutes)

About weather observations | Map of weather stations | Latest weather observations for WA | Other Formats
Station Details ID: 005094 Name: BARROW ISLAND AIRPORT Lat: -20.87 Lon: 115.41 Height: 6.4 m
Data from the previous 72 hours. | See also: Recent months at Barrow Island
Date/Time
WST
Temp
°C
App
Temp
°C
Dew
Point
°C
Rel
Hum
%
Delta-T
°C
Wind Press
QNH
hPa
Press
MSL
hPa
Rain since
9am
mm
Dir  Spd
km/h
Gust
km/h
Spd
kts
Gust
kts
26/11:30am 34.0 35.1 23.1 53 7.6 S 22 26 12 14 1008.5 - 0.0
26/11:00am 33.9 34.8 22.7 52 7.7 S 22 26 12 14 1008.5 - 0.0
26/10:30am 33.7 34.9 22.1 50 7.9 S 19 22 10 12 1008.7 - 0.0
26/10:00am 33.4 34.8 21.9 51 7.8 SSE 17 20 9 11 1008.9 - 0.0
26/09:30am 32.8 33.7 22.0 53 7.4 SSE 20 22 11 12 1008.9 - 0.0
26/09:00am 32.2 32.1 21.4 53 7.3 SSE 24 30 13 16 1008.9 1008.9 0.0
26/08:30am 31.7 31.6 21.5 54 6.9 SSE 24 28 13 15 1008.9 - 0.0
26/08:00am 31.3 31.7 21.8 57 6.4 SSE 22 28 12 15 1008.7 - 0.0
26/07:30am 30.7 30.5 21.2 57 6.4 SSE 24 30 13 16 1008.6 - 0.0
26/07:00am 30.0 29.7 21.9 62 5.5 SSE 26 30 14 16 1008.4 - 0.0
26/06:30am 29.4 29.5 22.6 67 4.6 SSE 26 32 14 17 1008.3 - 0.0
26/06:00am 29.5 30.4 23.4 69 4.2 S 24 28 13 15 1008.2 1008.2 0.0
26/05:30am 29.6 31.0 22.8 67 4.6 S 20 24 11 13 1007.9 - 0.0
26/05:00am 29.4 31.8 23.6 71 4.0 S 17 20 9 11 1007.9 - 0.0
26/04:30am 27.8 31.0 22.3 72 3.7 SW 9 11 5 6 1007.6 - 0.0
26/04:00am 28.1 31.9 22.8 73 3.6 SSW 7 9 4 5 1007.6 - 0.0
26/03:30am 29.3 33.1 22.8 68 4.4 S 7 9 4 5 1007.6 - 0.0
26/03:00am 29.6 32.9 22.6 66 4.8 SSE 9 11 5 6 1007.9 1007.9 0.0
26/02:30am 29.9 32.7 22.3 63 5.2 S 11 13 6 7 1008.1 - 0.0
26/02:00am 29.7 32.7 22.7 66 4.8 S 11 13 6 7 1008.4 - 0.0
26/01:30am 29.9 33.0 24.1 71 4.0 S 15 20 8 11 1008.6 - 0.0
26/01:00am 29.8 33.3 24.2 72 3.9 SE 13 17 7 9 1008.8 - 0.0
26/12:30am 30.2 33.8 24.4 71 4.0 E 13 17 7 9 1008.8 - 0.0
26/12:00am 30.3 34.5 24.7 72 3.9 E 11 15 6 8 1009.0 1009.0 0.0
 
Date/Time
WST
Temp
°C
App
Temp
°C
Dew
Point
°C
Rel
Hum
%
Delta-T
°C
Wind Press
QNH
hPa
Press
MSL
hPa
Rain since
9am
mm
Dir  Spd
km/h
Gust
km/h
Spd
kts
Gust
kts
25/11:30pm 30.4 35.0 24.8 72 3.9 E 9 11 5 6 1009.0 - 0.0
25/11:00pm 30.7 35.1 24.4 69 4.4 ESE 9 11 5 6 1009.1 - 0.0
25/10:30pm 30.8 34.4 24.4 68 4.5 SE 13 17 7 9 1009.3 - 0.0
25/10:00pm 31.0 33.6 24.6 68 4.5 SE 19 20 10 11 1009.3 - 0.0
25/09:30pm 31.1 34.2 24.2 66 4.8 SSE 15 19 8 10 1009.4 - 0.0
25/09:00pm 31.6 33.4 23.2 61 5.8 SSE 19 22 10 12 1009.4 1009.4 0.0
25/08:30pm 32.0 33.3 23.3 60 6.0 SSE 22 28 12 15 1009.5 - 0.0
25/08:00pm 31.8 33.3 24.4 65 5.2 SSE 24 28 13 15 1009.5 - 0.0
25/07:30pm 31.7 32.6 24.0 63 5.4 SSE 26 32 14 17 1009.4 - 0.0
25/07:00pm 32.0 35.6 27.0 75 3.6 S 22 30 12 16 1009.3 - 0.0
25/06:30pm 32.8 37.7 25.9 67 4.9 SSW 11 15 6 8 1008.7 - 0.0
25/06:00pm 33.6 37.3 23.3 55 7.2 S 9 11 5 6 1008.5 1008.5 0.0
25/05:30pm 34.5 38.3 23.5 52 7.7 SSE 9 13 5 7 1008.2 - 0.0
25/05:00pm 34.9 39.5 24.2 53 7.5 SE 7 9 4 5 1008.3 - 0.0
25/04:30pm 35.0 38.6 23.7 52 7.9 S 11 15 6 8 1008.3 - 0.0
25/04:00pm 34.4 37.9 24.9 57 6.7 SSW 15 20 8 11 1008.3 - 0.0
25/03:30pm 35.6 37.6 22.9 48 8.8 SW 17 20 9 11 1008.3 - 0.0
25/03:00pm 34.7 38.6 25.5 59 6.6 SSW 15 17 8 9 1008.5 1008.5 0.0
25/02:30pm 35.6 38.9 24.5 52 7.8 SSW 15 20 8 11 1008.8 - 0.0
25/02:00pm 35.1 38.6 22.8 49 8.5 S 9 13 5 7 1009.2 - 0.0
25/01:30pm 35.7 39.0 22.6 46 9.0 SSW 9 11 5 6 1009.6 - 0.0
25/01:00pm 35.7 39.1 24.0 51 8.2 S 13 17 7 9 1009.7 - 0.0
25/12:30pm 35.9 36.7 22.5 46 9.2 SSE 22 28 12 15 1010.0 - 0.0
25/12:00pm 34.9 34.8 22.2 47 8.7 SSE 26 33 14 18 1010.1 1010.1 0.0
25/11:30am 34.6 33.0 21.6 46 8.8 SSE 32 35 17 19 1010.1 - 0.0
25/11:00am 34.6 32.5 20.6 44 9.4 S 32 39 17 21 1010.2 - 0.0
25/10:30am 33.9 31.5 21.0 47 8.7 S 35 44 19 24 1010.4 - 0.0
25/10:00am 33.9 32.2 21.7 49 8.3 S 33 39 18 21 1010.6 - 0.0
25/09:30am 32.0 30.5 22.7 58 6.4 S 35 41 19 22 1010.7 - 0.0
25/09:00am 32.7 31.8 23.1 57 6.6 S 33 41 18 22 1010.6 1010.6 0.0
25/08:30am 32.3 30.8 22.7 57 6.6 S 35 39 19 21 1010.5 - 0.0
25/08:00am 31.1 29.0 22.4 60 5.9 S 37 41 20 22 1010.4 - 0.0
25/07:30am 30.9 29.3 23.3 64 5.2 S 37 43 20 23 1010.3 - 0.0
25/07:00am 30.8 28.4 23.2 64 5.2 S 41 50 22 27 1010.0 - 0.0
25/06:30am 30.6 28.6 23.3 65 5.0 S 39 48 21 26 1009.7 - 0.0
25/06:00am 30.8 29.9 22.9 62 5.4 SSW 32 43 17 23 1009.1 1009.1 0.0
25/05:30am 31.0 28.6 22.6 61 5.7 SSW 39 46 21 25 1008.9 - 0.0
25/05:00am 30.7 28.5 22.8 62 5.4 SSW 39 46 21 25 1009.0 - 0.0
25/04:30am 30.5 29.5 23.7 67 4.7 SSW 35 43 19 23 1009.4 - 0.0
25/04:00am 30.2 28.4 23.6 67 4.6 SW 39 46 21 25 1009.2 - 0.0
25/03:30am 30.5 29.6 23.9 68 4.6 SSW 35 44 19 24 1009.5 - 0.0
25/03:00am 30.6 32.6 25.2 73 3.8 SSW 24 28 13 15 1010.2 1010.2 0.0
25/02:30am 30.4 32.3 25.0 73 3.8 SSW 24 28 13 15 1010.3 - 0.0
25/02:00am 30.5 32.7 24.9 72 3.9 SW 22 26 12 14 1010.2 - 0.0
25/01:30am 30.8 32.2 24.2 68 4.6 SW 24 30 13 16 1010.4 - 0.0
25/01:00am 31.1 31.4 24.2 66 4.8 SW 30 35 16 19 1010.5 - 0.0
25/12:30am 31.8 32.2 22.5 58 6.4 SW 24 30 13 16 1010.5 - 0.0
25/12:00am 31.7 30.9 22.4 58 6.4 SW 30 35 16 19 1010.8 1010.8 0.0
 
Date/Time
WST
Temp
°C
App
Temp
°C
Dew
Point
°C
Rel
Hum
%
Delta-T
°C
Wind Press
QNH
hPa
Press
MSL
hPa
Rain since
9am
mm
Dir  Spd
km/h
Gust
km/h
Spd
kts
Gust
kts
24/11:30pm 31.3 29.9 22.0 57 6.3 SW 32 39 17 21 1011.1 - 0.0
24/11:00pm 30.9 31.2 23.0 62 5.4 SSW 26 30 14 16 1011.7 - 0.0
24/10:30pm 30.9 33.1 23.3 64 5.2 SW 17 20 9 11 1012.0 - 0.0
24/10:00pm 30.9 32.3 23.5 64 5.1 SW 22 28 12 15 1012.0 - 0.0
24/09:30pm 30.6 32.2 23.8 67 4.7 SW 22 28 12 15 1011.8 - 0.0
24/09:00pm 30.7 32.1 23.6 66 4.9 WSW 22 28 12 15 1011.6 1011.6 0.0
24/08:30pm 30.8 32.7 24.4 68 4.5 WSW 22 28 12 15 1011.3 - 0.0
24/08:00pm 30.9 33.1 24.3 68 4.6 WSW 20 24 11 13 1010.9 - 0.0
24/07:30pm 31.1 33.0 22.7 61 5.7 W 17 20 9 11 1010.6 - 0.0
24/07:00pm 31.5 33.1 21.4 55 6.8 W 15 19 8 10 1010.4 - 0.0
24/06:30pm 33.0 34.0 20.2 47 8.5 W 15 17 8 9 1010.3 - 0.0
24/06:00pm 34.2 35.0 20.6 45 9.1 WSW 17 20 9 11 1010.3 1010.3 0.0
24/05:30pm 35.1 38.2 24.1 53 7.7 WSW 15 20 8 11 1010.1 - 0.0
24/05:00pm 35.6 36.4 16.4 32 12.2 SSE 7 9 4 5 1010.1 - 0.0
24/04:30pm 35.4 36.0 15.2 30 12.6 ESE 6 7 3 4 1010.2 - 0.0
24/04:00pm 34.7 36.9 20.3 43 9.6 S 9 11 5 6 1010.4 - 0.0
24/03:30pm 34.8 37.3 21.1 44 9.3 S 9 13 5 7 1010.6 - 0.0
24/03:00pm 34.9 35.5 16.7 34 11.6 S 9 13 5 7 1010.7 1010.7 0.0
24/02:30pm 34.7 37.6 21.0 44 9.2 SSE 7 11 4 6 1010.9 - 0.0
24/02:00pm 34.1 37.1 21.9 49 8.3 SSE 9 13 5 7 1011.3 - 0.0
24/01:30pm 34.1 37.6 22.8 51 7.8 SSE 9 11 5 6 1011.6 - 0.0
24/01:00pm 33.8 37.1 22.6 52 7.7 SSE 9 13 5 7 1012.0 - 0.0
24/12:30pm 33.7 36.6 22.5 52 7.7 SSE 11 13 6 7 1012.4 - 0.0
24/12:00pm 33.8 36.3 23.2 54 7.3 SE 15 17 8 9 1012.8 1012.8 0.0
24/11:30am 34.0 35.9 22.7 51 7.8 SE 17 20 9 11 1013.1 - 0.0
24/11:00am 34.0 36.3 23.4 54 7.4 SE 17 20 9 11 1013.4 - 0.0
24/10:30am 33.1 34.9 22.5 53 7.3 SSE 17 22 9 12 1013.5 - 0.0
24/10:00am 32.4 33.1 21.6 53 7.3 SSE 20 24 11 13 1013.9 - 0.0
24/09:30am 31.8 32.5 21.6 54 6.9 SSE 20 24 11 13 1014.0 - 0.0
24/09:00am 31.6 31.8 22.0 56 6.5 SSE 24 28 13 15 1014.1 1014.1 0.0
24/08:30am 30.9 31.8 23.3 64 5.2 SSE 24 30 13 16 1014.1 - 0.0
24/08:00am 29.7 29.5 22.7 66 4.8 SE 28 32 15 17 1014.0 - 0.0
24/07:30am 29.1 30.0 24.6 76 3.1 SSE 28 32 15 17 1013.8 - 0.0
24/07:00am 29.2 29.9 24.3 75 3.4 S 28 32 15 17 1013.4 - 0.0
24/06:30am 29.2 30.5 24.1 74 3.5 S 24 28 13 15 1013.1 - 0.0
24/06:00am 29.2 29.2 22.4 66 4.6 S 26 30 14 16 1012.9 1012.9 0.0
24/05:30am 29.4 29.8 23.1 69 4.3 S 26 30 14 16 1012.8 - 0.0
24/05:00am 29.4 30.1 23.6 71 4.0 S 26 30 14 16 1012.8 - 0.0
24/04:30am 29.1 29.9 23.1 70 4.1 SSW 24 28 13 15 1012.5 - 0.0
24/04:00am 29.2 29.7 22.7 68 4.4 SSW 24 26 13 14 1012.5 - 0.0
24/03:30am 28.8 30.5 23.0 71 4.0 SW 19 20 10 11 1012.2 - 0.0
24/03:00am 28.7 30.1 22.9 71 4.0 SW 20 24 11 13 1011.9 1011.9 0.0
24/02:30am 29.2 30.0 23.2 70 4.1 SSW 24 28 13 15 1011.9 - 0.0
24/02:00am 29.5 30.7 23.2 69 4.3 SSW 22 26 12 14 1012.2 - 0.0
24/01:30am 29.5 31.3 23.2 69 4.3 SSW 19 20 10 11 1012.5 - 0.0
24/01:00am 29.1 32.2 22.1 66 4.7 SW 9 13 5 7 1012.9 - 0.0
24/12:30am 29.4 32.4 24.0 72 3.7 S 15 19 8 10 1013.0 - 0.0
24/12:00am 29.9 32.8 23.1 67 4.7 SSE 13 20 7 11 1013.3 1013.3 0.0
 
Date/Time
WST
Temp
°C
App
Temp
°C
Dew
Point
°C
Rel
Hum
%
Delta-T
°C
Wind Press
QNH
hPa
Press
MSL
hPa
Rain since
9am
mm
Dir  Spd
km/h
Gust
km/h
Spd
kts
Gust
kts
23/11:30pm 29.7 32.7 22.7 66 4.8 SE 11 15 6 8 1013.2 - 0.0
23/11:00pm 29.9 34.2 23.6 69 4.3 SE 7 11 4 6 1013.4 - 0.0
23/10:30pm 30.3 33.4 23.5 67 4.7 SE 13 17 7 9 1013.3 - 0.0
23/10:00pm 30.4 33.7 21.5 59 6.0 ENE 6 9 3 5 1012.9 - 0.0
23/09:30pm 30.7 32.4 22.3 61 5.7 ENE 17 20 9 11 1012.9 - 0.0
23/09:00pm 30.3 30.4 23.2 65 4.9 ENE 28 35 15 19 1012.7 1012.7 0.0
23/08:30pm 31.5 29.8 21.7 56 6.6 E 33 39 18 21 1012.8 - 0.0
23/08:00pm 31.2 28.0 20.2 52 7.3 ESE 37 46 20 25 1013.0 - 0.0
23/07:30pm 30.5 26.4 20.7 55 6.5 ESE 43 50 23 27 1012.9 - 0.0
23/07:00pm 30.3 27.2 21.9 60 5.7 SE 41 48 22 26 1012.8 - 0.0
23/06:30pm 30.3 28.2 23.7 68 4.6 SE 41 50 22 27 1013.1 - 0.0
23/06:21pm 29.9 27.4 23.1 67 4.7 SE 41 48 22 26 1013.1 - 0.0
23/06:00pm 29.4 27.4 22.6 67 4.6 E 37 56 20 30 1013.0 1013.0 0.0
23/05:57pm 30.5 29.2 22.1 61 5.7 E 32 52 17 28 1012.9 - 0.0
23/05:30pm 30.4 31.1 23.6 67 4.7 E 26 33 14 18 1012.1 - 0.0
23/05:00pm 30.6 29.0 23.3 65 5.0 E 37 44 20 24 1011.8 - 0.0
23/04:41pm 31.5 32.0 26.7 75 3.5 E 37 46 20 25 1011.7 - 0.0
23/04:30pm 32.6 34.8 26.6 70 4.3 NE 28 32 15 17 1011.2 - 0.0
23/04:00pm 32.7 34.7 25.8 67 4.9 NE 26 30 14 16 1010.7 - 0.0
23/03:30pm 33.3 36.0 26.3 66 5.0 NE 24 28 13 15 1010.5 - 0.0
23/03:00pm 32.9 35.2 25.7 66 5.1 ENE 24 28 13 15 1010.4 1010.4 0.0
23/02:30pm 32.9 36.3 26.7 70 4.5 ENE 22 28 12 15 1010.4 - 0.0
23/02:00pm 32.9 37.0 26.4 68 4.7 ENE 17 19 9 10 1010.6 - 0.0
23/01:30pm 32.9 38.0 27.2 72 4.1 E 15 17 8 9 1011.0 - 0.0
23/01:00pm 32.9 38.5 27.4 73 4.0 E 13 17 7 9 1011.4 - 0.0
23/12:30pm 32.7 37.3 26.5 70 4.5 ENE 15 17 8 9 1011.6 - 0.0
23/12:00pm 32.4 35.3 26.0 69 4.6 ENE 22 24 12 13 1011.9 1011.9 0.0

Other Formats:

Comma delimited format used in spreadsheet applications
http://www.bom.gov.au/fwo/IDW60801/IDW60801.95304.axf

JavaScript Object Notation format (JSON) in row-major order
http://www.bom.gov.au/fwo/IDW60801/IDW60801.95304.json